Time;durP1;ratioP1;P1;durP2;ratioP2;P2;SDS_P1;SDS_P2;PMS_P1;PMS_P2;Temp;Humidity;BMP_temperature;BMP_pressure;BME280_temperature;BME280_humidity;BME280_pressure;Samples;Min_cycle;Max_cycle;Signal;HPM_P1;HPM_P2
2024/01/15 00:01:46;;;;;;;3.63;3.17;;;1.50;95.00;;;;;;4936185;29;20228;-61
2024/01/15 00:04:12;;;;;;;1.53;1.43;;;1.40;94.80;;;;;;4936580;29;20666;-61
2024/01/15 00:06:37;;;;;;;2.13;2.03;;;1.50;94.80;;;;;;4936056;29;20279;-61
2024/01/15 00:09:03;;;;;;;1.93;1.63;;;1.40;94.30;;;;;;4935702;29;20184;-61
2024/01/15 00:11:29;;;;;;;13.03;5.17;;;1.50;94.30;;;;;;4936369;29;20343;-60
2024/01/15 00:13:56;;;;;;;1.70;1.60;;;1.40;94.40;;;;;;4936813;29;20173;-62
2024/01/15 00:16:21;;;;;;;2.53;2.35;;;1.40;94.50;;;;;;4936395;29;20437;-61
2024/01/15 00:18:47;;;;;;;2.30;2.20;;;1.40;94.60;;;;;;4936268;29;20264;-61
2024/01/15 00:21:13;;;;;;;4.77;1.90;;;1.40;94.40;;;;;;4936122;29;20192;-62
2024/01/15 00:23:44;;;;;;;5.53;1.53;;;1.50;94.30;;;;;;4936408;29;20181;-62
2024/01/15 00:26:10;;;;;;;3.80;3.45;;;1.50;94.30;;;;;;4936517;29;20670;-61
2024/01/15 00:28:37;;;;;;;2.53;2.13;;;1.70;94.40;;;;;;4936277;29;20281;-61
2024/01/15 00:31:06;;;;;;;1.08;1.08;;;1.80;94.10;;;;;;4936062;29;21023;-61
2024/01/15 00:33:32;;;;;;;3.72;1.90;;;1.70;93.90;;;;;;4935998;29;20178;-61
2024/01/15 00:35:57;;;;;;;3.07;2.87;;;1.70;93.80;;;;;;4935968;29;20194;-61
2024/01/15 00:38:23;;;;;;;1.77;1.00;;;1.70;93.80;;;;;;4935959;29;20240;-61
2024/01/15 00:40:49;;;;;;;1.20;1.20;;;1.70;93.80;;;;;;4935949;29;20177;-62
2024/01/15 00:43:15;;;;;;;1.80;1.67;;;1.70;93.60;;;;;;4935813;29;20643;-61
2024/01/15 00:45:41;;;;;;;3.50;2.07;;;1.60;93.50;;;;;;4935655;29;20213;-61
2024/01/15 00:48:06;;;;;;;2.85;2.65;;;1.50;93.70;;;;;;4934685;29;20188;-62
2024/01/15 00:50:32;;;;;;;3.67;3.43;;;1.50;93.60;;;;;;4933921;29;20192;-61
2024/01/15 00:52:58;;;;;;;2.30;2.20;;;1.50;93.70;;;;;;4935224;29;20175;-61
2024/01/15 00:55:23;;;;;;;2.23;2.13;;;1.50;93.70;;;;;;4934510;29;20181;-61
2024/01/15 00:57:49;;;;;;;1.60;1.50;;;1.50;93.60;;;;;;4935660;29;20172;-62
2024/01/15 01:00:15;;;;;;;2.17;1.83;;;1.50;93.60;;;;;;4935447;29;20698;-61
2024/01/15 01:02:40;;;;;;;2.40;1.60;;;1.40;93.50;;;;;;4935460;29;20216;-62
2024/01/15 01:05:06;;;;;;;2.17;2.10;;;1.40;93.50;;;;;;4935541;29;20424;-62
2024/01/15 01:07:32;;;;;;;1.80;1.70;;;1.40;93.60;;;;;;4935419;29;20200;-62
2024/01/15 01:09:57;;;;;;;2.10;1.90;;;1.50;93.30;;;;;;4935463;29;20417;-61
2024/01/15 01:12:23;;;;;;;2.37;2.17;;;1.60;92.60;;;;;;4935210;29;20613;-61
2024/01/15 01:14:49;;;;;;;8.43;1.17;;;1.60;92.30;;;;;;4935367;29;20180;-62
2024/01/15 01:17:14;;;;;;;0.60;0.60;;;1.60;91.70;;;;;;4935506;29;20203;-62
2024/01/15 01:19:40;;;;;;;2.60;2.50;;;1.60;91.20;;;;;;4934674;29;20298;-61
2024/01/15 01:22:06;;;;;;;1.57;0.63;;;1.40;89.50;;;;;;4935036;29;20183;-61
2024/01/15 01:24:31;;;;;;;2.70;1.23;;;1.30;89.30;;;;;;4935237;29;20252;-61
2024/01/15 01:26:57;;;;;;;2.30;2.20;;;1.40;88.70;;;;;;4935115;29;20198;-61
2024/01/15 01:29:23;;;;;;;2.40;2.27;;;1.40;87.40;;;;;;4935102;29;20644;-62
2024/01/15 01:31:48;;;;;;;8.47;2.20;;;1.30;86.30;;;;;;4934658;29;20189;-62
2024/01/15 01:34:15;;;;;;;1.93;1.50;;;1.20;86.60;;;;;;4935025;29;20728;-62
2024/01/15 01:36:40;;;;;;;2.25;1.50;;;1.30;87.40;;;;;;4935012;29;20444;-62
2024/01/15 01:39:06;;;;;;;1.10;1.10;;;1.20;86.70;;;;;;4934856;29;20215;-61
2024/01/15 01:41:32;;;;;;;1.70;1.60;;;1.00;84.70;;;;;;4934639;29;20215;-61
2024/01/15 01:43:57;;;;;;;1.40;1.40;;;0.90;84.60;;;;;;4934888;29;20548;-62
2024/01/15 01:46:25;;;;;;;0.90;0.90;;;0.90;84.80;;;;;;4934691;29;20848;-61
2024/01/15 01:48:52;;;;;;;3.92;1.65;;;0.80;84.40;;;;;;4934871;29;20415;-61
2024/01/15 01:51:18;;;;;;;1.10;1.05;;;0.60;83.90;;;;;;4934588;29;20184;-62
2024/01/15 01:53:45;;;;;;;0.40;0.40;;;0.50;84.20;;;;;;4934844;29;20211;-61
2024/01/15 01:56:12;;;;;;;1.55;0.85;;;0.50;84.80;;;;;;4934503;29;20219;-62
2024/01/15 01:58:38;;;;;;;1.52;0.75;;;0.60;84.40;;;;;;4934553;29;20238;-62
2024/01/15 02:01:04;;;;;;;1.55;1.08;;;0.60;84.20;;;;;;4934400;29;20599;-62
2024/01/15 02:03:30;;;;;;;1.00;0.90;;;0.50;84.10;;;;;;4934417;29;20183;-62
2024/01/15 02:05:57;;;;;;;0.95;0.95;;;0.50;84.10;;;;;;4934571;29;20431;-61
2024/01/15 02:08:23;;;;;;;3.13;1.95;;;0.40;84.60;;;;;;4934683;29;20185;-61
2024/01/15 02:10:48;;;;;;;0.50;0.50;;;0.30;85.10;;;;;;4934311;29;20179;-61
2024/01/15 02:13:14;;;;;;;0.63;0.63;;;0.30;85.80;;;;;;4934238;29;20219;-61
2024/01/15 02:15:40;;;;;;;3.80;3.50;;;0.40;86.00;;;;;;4934402;29;20188;-62
2024/01/15 02:18:07;;;;;;;1.48;1.38;;;0.40;86.40;;;;;;4934378;29;20425;-62
2024/01/15 02:20:33;;;;;;;3.30;1.20;;;0.30;86.20;;;;;;4934087;29;20214;-62
2024/01/15 02:23:12;;;;;;;6.10;1.33;;;0.30;86.50;;;;;;4934279;29;20171;-62
2024/01/15 02:25:40;;;;;;;1.08;0.98;;;0.20;86.90;;;;;;4934301;29;20220;-62
2024/01/15 02:28:08;;;;;;;0.75;0.75;;;0.30;87.40;;;;;;4934188;29;20182;-62
2024/01/15 02:30:38;;;;;;;2.05;1.65;;;0.30;87.40;;;;;;4933977;29;20638;-61
2024/01/15 02:33:04;;;;;;;1.92;1.83;;;0.20;87.30;;;;;;4934128;29;20176;-61
2024/01/15 02:35:29;;;;;;;0.70;0.70;;;0.10;87.70;;;;;;4934143;29;20190;-62
2024/01/15 02:37:55;;;;;;;1.03;1.03;;;0.00;88.10;;;;;;4934235;29;20208;-62
2024/01/15 02:40:20;;;;;;;1.40;1.07;;;-0.10;88.60;;;;;;4934158;29;20589;-61
2024/01/15 02:42:46;;;;;;;0.93;0.87;;;-0.10;89.00;;;;;;4934090;29;20182;-61
2024/01/15 02:45:12;;;;;;;0.63;0.63;;;0.00;89.00;;;;;;4934126;29;20172;-62
2024/01/15 02:47:37;;;;;;;3.23;2.30;;;0.00;89.00;;;;;;4934142;29;20198;-62
2024/01/15 02:50:03;;;;;;;4.83;3.80;;;-0.10;89.60;;;;;;4934068;29;20182;-62
2024/01/15 02:52:29;;;;;;;0.90;0.90;;;-0.10;89.70;;;;;;4933895;29;20235;-62
2024/01/15 02:54:54;;;;;;;3.03;2.60;;;-0.10;89.60;;;;;;4934070;29;20550;-62
2024/01/15 02:57:20;;;;;;;1.33;1.03;;;-0.10;90.00;;;;;;4933890;29;20225;-62
2024/01/15 02:59:45;;;;;;;0.67;0.67;;;-0.10;90.10;;;;;;4933954;29;20566;-62
2024/01/15 03:02:11;;;;;;;0.90;0.90;;;-0.10;90.10;;;;;;4933701;29;20179;-63
2024/01/15 03:04:37;;;;;;;2.37;2.23;;;-0.20;90.30;;;;;;4932701;29;20249;-62
2024/01/15 03:07:02;;;;;;;1.50;0.70;;;-0.10;90.50;;;;;;4933861;29;20191;-62
2024/01/15 03:09:28;;;;;;;1.27;1.17;;;0.00;90.60;;;;;;4934339;29;20259;-62
2024/01/15 03:11:53;;;;;;;1.23;0.90;;;0.20;90.60;;;;;;4933697;29;20523;-62
2024/01/15 03:14:20;;;;;;;0.80;0.80;;;0.20;90.50;;;;;;4933881;29;20218;-62
2024/01/15 03:16:45;;;;;;;1.85;1.05;;;0.30;90.50;;;;;;4933865;29;20219;-62
2024/01/15 03:19:11;;;;;;;1.27;1.17;;;0.40;90.60;;;;;;4933781;29;20204;-62
2024/01/15 03:21:37;;;;;;;2.57;1.27;;;0.50;90.60;;;;;;4933505;29;20203;-62
2024/01/15 03:24:02;;;;;;;1.47;1.37;;;0.60;90.50;;;;;;4933837;29;20172;-62
2024/01/15 03:26:28;;;;;;;0.60;0.60;;;0.70;90.30;;;;;;4933897;29;20292;-62
2024/01/15 03:28:54;;;;;;;2.03;1.73;;;0.80;90.30;;;;;;4933765;29;20188;-62
2024/01/15 03:31:19;;;;;;;5.70;1.23;;;0.90;90.10;;;;;;4933525;29;20185;-62
2024/01/15 03:33:45;;;;;;;1.83;1.73;;;0.90;90.00;;;;;;4933771;29;20605;-63
2024/01/15 03:36:11;;;;;;;1.73;1.63;;;0.90;90.00;;;;;;4933610;29;20290;-62
2024/01/15 03:38:41;;;;;;;1.80;1.73;;;1.00;90.00;;;;;;4933642;29;20213;-62
2024/01/15 03:41:06;;;;;;;2.67;2.58;;;0.90;90.00;;;;;;4933493;29;20195;-62
2024/01/15 03:43:32;;;;;;;1.17;1.17;;;0.90;90.10;;;;;;4936640;29;20171;-63
2024/01/15 03:45:58;;;;;;;1.50;1.40;;;1.00;90.10;;;;;;4936954;29;20197;-62
2024/01/15 03:48:23;;;;;;;2.30;2.10;;;0.90;90.10;;;;;;4937042;29;20172;-62
2024/01/15 03:50:49;;;;;;;0.90;0.90;;;1.00;90.40;;;;;;4936736;29;20654;-62
2024/01/15 03:53:14;;;;;;;3.80;2.57;;;1.10;90.50;;;;;;4936789;29;20176;-62
2024/01/15 03:55:40;;;;;;;3.77;2.40;;;1.10;90.40;;;;;;4936771;29;20247;-62
2024/01/15 03:58:06;;;;;;;2.07;2.00;;;1.10;90.70;;;;;;4936942;29;20180;-62
2024/01/15 04:00:31;;;;;;;2.20;1.17;;;1.10;90.90;;;;;;4936760;29;20203;-62
2024/01/15 04:02:57;;;;;;;1.40;1.30;;;1.10;91.10;;;;;;4936757;29;20172;-62
2024/01/15 04:05:22;;;;;;;1.33;1.23;;;1.10;91.30;;;;;;4936603;29;20278;-63
2024/01/15 04:07:48;;;;;;;1.70;1.47;;;1.10;91.30;;;;;;4936680;29;20180;-62
2024/01/15 04:10:14;;;;;;;1.90;1.23;;;1.10;91.60;;;;;;4936432;29;20176;-62
2024/01/15 04:12:39;;;;;;;0.40;0.40;;;1.10;91.70;;;;;;4936503;29;20227;-62
2024/01/15 04:15:05;;;;;;;1.73;1.63;;;1.10;91.80;;;;;;4936462;29;20175;-63
2024/01/15 04:17:31;;;;;;;0.93;0.93;;;1.00;92.10;;;;;;4936450;29;20264;-62
2024/01/15 04:19:56;;;;;;;0.80;0.70;;;0.80;92.20;;;;;;4936292;29;20446;-62
2024/01/15 04:22:23;;;;;;;0.37;0.37;;;0.80;92.60;;;;;;4936163;29;20227;-62
2024/01/15 04:24:48;;;;;;;4.32;2.05;;;0.70;92.70;;;;;;4936535;29;20171;-62
2024/01/15 04:27:14;;;;;;;0.73;0.73;;;0.70;92.90;;;;;;4936274;29;20257;-62
2024/01/15 04:29:40;;;;;;;0.77;0.57;;;0.80;93.10;;;;;;4936203;29;20254;-62
2024/01/15 04:32:06;;;;;;;0.80;0.80;;;0.80;93.10;;;;;;4936014;29;20599;-62
2024/01/15 04:34:31;;;;;;;0.50;0.50;;;0.80;93.30;;;;;;4936141;29;20188;-63
2024/01/15 04:36:57;;;;;;;1.67;1.57;;;0.80;93.30;;;;;;4936112;29;20436;-62
2024/01/15 04:39:23;;;;;;;0.40;0.40;;;0.70;93.20;;;;;;4936026;29;20203;-62
2024/01/15 04:41:48;;;;;;;0.50;0.50;;;0.60;93.40;;;;;;4935824;29;20665;-62
2024/01/15 04:44:14;;;;;;;0.50;0.50;;;0.40;93.70;;;;;;4936051;29;20168;-62
2024/01/15 04:46:39;;;;;;;5.20;1.07;;;0.30;93.90;;;;;;4935879;29;20679;-62
2024/01/15 04:49:05;;;;;;;2.13;1.70;;;0.30;94.00;;;;;;4935756;29;20180;-62
2024/01/15 04:51:31;;;;;;;2.67;1.83;;;0.40;93.60;;;;;;4935662;29;20317;-62
2024/01/15 04:53:56;;;;;;;3.60;1.27;;;0.50;93.60;;;;;;4934787;29;20258;-62
2024/01/15 04:56:22;;;;;;;0.40;0.40;;;0.40;93.70;;;;;;4935669;29;20634;-62
2024/01/15 04:58:48;;;;;;;0.30;0.30;;;0.40;93.30;;;;;;4935673;29;20202;-62
2024/01/15 05:01:16;;;;;;;1.33;1.27;;;0.50;93.50;;;;;;4935401;29;20204;-62
2024/01/15 05:03:41;;;;;;;1.02;1.02;;;0.60;93.00;;;;;;4935516;29;20185;-62
2024/01/15 05:06:07;;;;;;;2.90;1.30;;;0.70;92.90;;;;;;4935543;29;20200;-62
2024/01/15 05:08:33;;;;;;;0.43;0.43;;;0.70;92.90;;;;;;4935598;29;20304;-62
2024/01/15 05:10:58;;;;;;;1.57;1.47;;;0.50;93.20;;;;;;4935430;29;20169;-62
2024/01/15 05:13:24;;;;;;;4.93;2.90;;;0.60;93.50;;;;;;4935384;29;20243;-62
2024/01/15 05:15:49;;;;;;;0.40;0.40;;;0.60;93.00;;;;;;4935327;29;20196;-62
2024/01/15 05:18:16;;;;;;;0.47;0.47;;;0.50;92.40;;;;;;4935394;29;20544;-62
2024/01/15 05:20:42;;;;;;;0.50;0.50;;;0.30;92.50;;;;;;4935052;29;20254;-62
2024/01/15 05:23:09;;;;;;;8.07;3.13;;;0.30;92.60;;;;;;4938182;29;20185;-62
2024/01/15 05:25:35;;;;;;;0.40;0.40;;;0.50;92.90;;;;;;4939907;29;20695;-62
2024/01/15 05:28:02;;;;;;;1.60;1.50;;;0.60;92.40;;;;;;4939976;29;20219;-61
2024/01/15 05:30:27;;;;;;;0.93;0.70;;;0.60;92.40;;;;;;4939435;29;20248;-61
2024/01/15 05:32:53;;;;;;;0.50;0.50;;;0.70;92.30;;;;;;4939652;29;20259;-60
2024/01/15 05:35:19;;;;;;;0.50;0.40;;;0.90;92.10;;;;;;4939364;29;20653;-60
2024/01/15 05:37:46;;;;;;;0.87;0.87;;;1.00;91.90;;;;;;4939566;29;20254;-61
2024/01/15 05:40:15;;;;;;;0.73;0.73;;;1.00;91.80;;;;;;4940459;29;20983;-60
2024/01/15 05:42:41;;;;;;;2.17;1.90;;;1.00;91.80;;;;;;4939393;29;20181;-61
2024/01/15 05:45:08;;;;;;;0.50;0.50;;;1.00;91.60;;;;;;4939446;29;20263;-61
2024/01/15 05:47:34;;;;;;;1.50;1.45;;;1.10;91.50;;;;;;4910243;29;20275;-61
2024/01/15 05:50:01;;;;;;;3.90;3.30;;;1.10;91.50;;;;;;4919792;29;20214;-61
2024/01/15 05:52:28;;;;;;;0.90;0.90;;;1.10;91.40;;;;;;4920891;29;20173;-61
2024/01/15 05:54:53;;;;;;;1.50;1.40;;;1.10;91.60;;;;;;4935254;29;20218;-60
2024/01/15 05:57:19;;;;;;;1.93;1.43;;;1.00;91.50;;;;;;4958456;28;20243;-61
2024/01/15 05:59:45;;;;;;;0.40;0.40;;;1.00;91.30;;;;;;4959359;29;20666;-61
2024/01/15 06:02:11;;;;;;;2.10;1.80;;;0.90;91.30;;;;;;4939063;29;20571;-61
2024/01/15 06:04:37;;;;;;;1.10;1.03;;;0.90;91.60;;;;;;4938688;29;20548;-61
2024/01/15 06:07:03;;;;;;;1.17;1.17;;;1.00;91.70;;;;;;4938281;29;20435;-60
2024/01/15 06:09:29;;;;;;;0.68;0.68;;;1.10;91.60;;;;;;4921130;29;20431;-61
2024/01/15 06:11:55;;;;;;;1.27;1.27;;;1.10;91.60;;;;;;4937854;29;20175;-61
2024/01/15 06:14:21;;;;;;;1.98;1.17;;;1.10;91.60;;;;;;4937327;29;20536;-61
2024/01/15 06:16:46;;;;;;;3.23;1.57;;;1.00;91.60;;;;;;4937595;29;20226;-61
2024/01/15 06:19:12;;;;;;;4.63;1.57;;;0.90;91.70;;;;;;4938309;29;20203;-62
2024/01/15 06:21:38;;;;;;;2.40;1.80;;;0.90;91.90;;;;;;4938702;29;20186;-61
2024/01/15 06:24:04;;;;;;;2.27;2.17;;;0.90;92.00;;;;;;4939106;29;20404;-61
2024/01/15 06:26:30;;;;;;;5.15;2.65;;;0.90;92.10;;;;;;4921989;29;20195;-61
2024/01/15 06:28:56;;;;;;;0.70;0.70;;;0.90;92.20;;;;;;4938140;29;20197;-60
2024/01/15 06:31:22;;;;;;;0.88;0.88;;;0.90;92.50;;;;;;4938511;29;20181;-62
2024/01/15 06:33:48;;;;;;;4.57;4.37;;;1.00;92.10;;;;;;4938079;29;20243;-61
2024/01/15 06:36:16;;;;;;;1.10;1.10;;;1.00;91.90;;;;;;4937370;29;20207;-61
2024/01/15 06:38:43;;;;;;;0.88;0.88;;;0.90;92.10;;;;;;4938990;29;20188;-61
2024/01/15 06:41:09;;;;;;;1.10;1.10;;;0.90;91.70;;;;;;4938643;29;20611;-61
2024/01/15 06:43:35;;;;;;;0.60;0.60;;;0.90;91.70;;;;;;4940023;29;20177;-61
2024/01/15 06:46:00;;;;;;;1.13;1.07;;;0.80;91.80;;;;;;4938501;29;20567;-61
2024/01/15 06:48:26;;;;;;;0.70;0.70;;;0.90;92.00;;;;;;4937681;29;20657;-61
2024/01/15 06:50:52;;;;;;;0.40;0.40;;;1.00;91.60;;;;;;4938339;29;20386;-62
2024/01/15 06:53:17;;;;;;;1.20;1.20;;;1.00;91.30;;;;;;4938502;29;20180;-61
2024/01/15 06:55:43;;;;;;;0.77;0.77;;;0.90;91.30;;;;;;4939912;29;20215;-62
2024/01/15 06:58:09;;;;;;;0.70;0.70;;;1.00;91.60;;;;;;4939850;29;20642;-60
2024/01/15 07:00:34;;;;;;;0.90;0.90;;;1.00;91.10;;;;;;4938178;29;20203;-61
2024/01/15 07:03:00;;;;;;;1.23;1.23;;;0.90;91.30;;;;;;4938622;29;20710;-61
2024/01/15 07:05:26;;;;;;;1.07;0.90;;;0.90;91.50;;;;;;4938753;29;20646;-61
2024/01/15 07:07:51;;;;;;;0.77;0.77;;;0.80;91.30;;;;;;4938429;29;20190;-61
2024/01/15 07:10:17;;;;;;;1.53;1.43;;;0.80;91.60;;;;;;4937396;29;20426;-61
2024/01/15 07:12:44;;;;;;;3.50;1.10;;;0.80;91.70;;;;;;4938741;29;20210;-60
2024/01/15 07:15:10;;;;;;;1.90;1.80;;;0.80;91.50;;;;;;4938155;29;20179;-60
2024/01/15 07:17:39;;;;;;;0.57;0.57;;;0.70;91.40;;;;;;4939982;29;20206;-61
2024/01/15 07:20:07;;;;;;;0.60;0.60;;;0.80;91.70;;;;;;4943235;29;20286;-60
2024/01/15 07:22:34;;;;;;;1.20;1.10;;;0.90;91.60;;;;;;4942398;29;20195;-60
2024/01/15 07:24:59;;;;;;;2.65;1.05;;;0.90;91.70;;;;;;4925195;29;20174;-61
2024/01/15 07:27:25;;;;;;;2.50;1.53;;;0.90;91.30;;;;;;4941319;29;20202;-61
2024/01/15 07:29:52;;;;;;;4.47;1.63;;;0.90;91.70;;;;;;4941330;29;20176;-61
2024/01/15 07:32:17;;;;;;;1.20;1.20;;;0.90;91.70;;;;;;4942324;29;20502;-60
2024/01/15 07:34:43;;;;;;;0.80;0.80;;;0.90;91.50;;;;;;4939645;29;20212;-60
2024/01/15 07:37:09;;;;;;;6.33;1.37;;;0.90;91.60;;;;;;4938496;29;20626;-60
2024/01/15 07:39:34;;;;;;;0.30;0.30;;;0.90;91.60;;;;;;4938728;29;20436;-60
2024/01/15 07:42:01;;;;;;;1.47;1.33;;;0.90;91.30;;;;;;4938231;29;20254;-60
2024/01/15 07:44:26;;;;;;;1.42;1.33;;;0.60;91.00;;;;;;4941046;29;20175;-60
2024/01/15 07:46:52;;;;;;;0.30;0.30;;;0.60;91.50;;;;;;4937684;29;20200;-61
2024/01/15 07:49:17;;;;;;;0.40;0.40;;;0.50;91.30;;;;;;4937385;29;20175;-61
2024/01/15 07:51:43;;;;;;;2.17;1.97;;;0.30;91.40;;;;;;4937753;29;20215;-61
2024/01/15 07:54:09;;;;;;;0.83;0.83;;;0.30;91.50;;;;;;4937773;29;20190;-61
2024/01/15 07:56:57;;;;;;;1.10;1.10;;;0.40;91.60;;;;;;4937666;29;20619;-61
2024/01/15 07:59:22;;;;;;;2.05;0.82;;;0.60;91.20;;;;;;4937935;29;20194;-61
2024/01/15 08:01:48;;;;;;;0.40;0.40;;;0.50;91.10;;;;;;4920396;29;20189;-60
2024/01/15 08:04:14;;;;;;;0.67;0.50;;;0.40;91.30;;;;;;4937269;29;20178;-60
2024/01/15 08:06:39;;;;;;;1.03;1.03;;;0.30;91.40;;;;;;4937406;29;20195;-59
2024/01/15 08:09:05;;;;;;;0.50;0.50;;;0.30;91.60;;;;;;4936551;29;20178;-60
2024/01/15 08:11:31;;;;;;;0.30;0.30;;;0.40;91.70;;;;;;4936816;29;20179;-60
2024/01/15 08:13:57;;;;;;;1.07;0.67;;;0.20;91.50;;;;;;4920372;29;20191;-60
2024/01/15 08:16:24;;;;;;;2.63;2.53;;;0.40;91.60;;;;;;4937268;29;20232;-60
2024/01/15 08:18:50;;;;;;;0.60;0.55;;;0.60;91.70;;;;;;4936280;29;20239;-59
2024/01/15 08:21:15;;;;;;;1.33;1.33;;;0.70;90.90;;;;;;4940016;29;20178;-61
2024/01/15 08:23:41;;;;;;;1.57;1.50;;;0.80;90.60;;;;;;4955553;29;20213;-62
2024/01/15 08:26:07;;;;;;;1.13;1.13;;;0.70;90.60;;;;;;4955618;28;20203;-62
2024/01/15 08:28:33;;;;;;;2.20;2.07;;;0.80;90.70;;;;;;4955259;28;20178;-62
2024/01/15 08:30:58;;;;;;;2.43;2.33;;;0.70;90.80;;;;;;4955342;29;20411;-62
2024/01/15 08:33:24;;;;;;;8.33;1.00;;;0.70;91.20;;;;;;4955353;29;20638;-62
2024/01/15 08:35:49;;;;;;;1.37;1.27;;;0.80;90.90;;;;;;4955325;28;20187;-62
2024/01/15 08:38:15;;;;;;;0.70;0.40;;;0.80;90.90;;;;;;4955231;29;20630;-63
2024/01/15 08:40:41;;;;;;;2.70;2.00;;;0.70;90.60;;;;;;4954996;29;20236;-63
2024/01/15 08:43:06;;;;;;;2.60;0.73;;;0.70;90.70;;;;;;4955059;29;20253;-62
2024/01/15 08:45:32;;;;;;;1.57;1.50;;;0.80;91.00;;;;;;4955231;28;20174;-62
2024/01/15 08:47:58;;;;;;;6.10;0.88;;;0.80;90.50;;;;;;4955182;29;20182;-63
2024/01/15 08:50:24;;;;;;;0.63;0.63;;;0.80;90.40;;;;;;4954961;29;20183;-62
2024/01/15 08:52:49;;;;;;;0.77;0.77;;;0.70;90.50;;;;;;4955142;29;20179;-62
2024/01/15 08:55:15;;;;;;;1.13;1.13;;;0.60;90.70;;;;;;4954979;29;20181;-62
2024/01/15 08:57:41;;;;;;;0.67;0.67;;;0.70;91.00;;;;;;4954875;28;20203;-62
2024/01/15 09:00:09;;;;;;;0.50;0.50;;;0.70;90.80;;;;;;4954989;29;20202;-62
2024/01/15 09:02:35;;;;;;;0.50;0.40;;;0.70;90.50;;;;;;4954689;29;20211;-62
2024/01/15 09:05:01;;;;;;;1.25;1.13;;;0.70;90.50;;;;;;4954883;29;20180;-62
2024/01/15 09:07:27;;;;;;;0.50;0.50;;;0.70;90.60;;;;;;4954626;28;20562;-62
2024/01/15 09:09:53;;;;;;;0.40;0.40;;;0.60;90.60;;;;;;4954635;29;20183;-62
2024/01/15 09:12:20;;;;;;;2.28;0.90;;;0.50;90.80;;;;;;4954377;29;20466;-63
2024/01/15 09:14:47;;;;;;;0.73;0.73;;;0.70;90.80;;;;;;4954587;29;20520;-62
2024/01/15 09:17:12;;;;;;;2.17;2.08;;;0.90;90.60;;;;;;4954624;28;20236;-62
2024/01/15 09:19:39;;;;;;;0.40;0.40;;;1.00;90.30;;;;;;4954652;29;20299;-62
2024/01/15 09:22:05;;;;;;;0.95;0.95;;;1.00;90.10;;;;;;4954072;29;20190;-63
2024/01/15 09:24:31;;;;;;;0.30;0.30;;;1.10;89.60;;;;;;4954455;29;20188;-62
2024/01/15 09:26:56;;;;;;;0.40;0.40;;;1.20;88.90;;;;;;4954513;28;20226;-63
2024/01/15 09:29:23;;;;;;;0.63;0.63;;;1.40;88.90;;;;;;4954392;29;20171;-62
2024/01/15 09:31:50;;;;;;;0.85;0.85;;;1.40;88.40;;;;;;4953994;29;20199;-62
2024/01/15 09:34:16;;;;;;;2.90;2.80;;;1.30;88.40;;;;;;4954187;29;20192;-62
2024/01/15 09:36:42;;;;;;;0.85;0.50;;;1.50;88.70;;;;;;4954139;28;20199;-63
2024/01/15 09:39:08;;;;;;;1.85;1.75;;;1.70;88.00;;;;;;4953808;28;20208;-62
2024/01/15 09:41:38;;;;;;;0.55;0.55;;;1.80;87.20;;;;;;4953786;29;20183;-63
2024/01/15 09:44:04;;;;;;;1.63;1.50;;;1.80;88.10;;;;;;4954251;29;20661;-62
2024/01/15 09:46:31;;;;;;;2.15;1.13;;;1.90;88.10;;;;;;4954061;28;20201;-62
2024/01/15 09:48:58;;;;;;;1.02;1.02;;;2.10;87.10;;;;;;4953885;29;20173;-62
2024/01/15 09:51:24;;;;;;;0.40;0.40;;;2.20;85.30;;;;;;4953782;29;20224;-62
2024/01/15 09:53:50;;;;;;;0.40;0.40;;;2.10;85.10;;;;;;4953916;29;20267;-62
2024/01/15 09:56:16;;;;;;;0.93;0.90;;;2.10;85.10;;;;;;4953706;28;20246;-62
2024/01/15 09:58:42;;;;;;;2.00;1.53;;;2.20;85.70;;;;;;4953893;29;20415;-63
2024/01/15 10:01:08;;;;;;;6.85;1.17;;;2.30;85.70;;;;;;4953722;29;20407;-62
2024/01/15 10:03:34;;;;;;;0.75;0.75;;;2.50;84.70;;;;;;4953701;29;20192;-62
2024/01/15 10:06:02;;;;;;;1.23;1.20;;;2.60;84.40;;;;;;4953636;28;20196;-62
2024/01/15 10:08:28;;;;;;;1.55;1.42;;;2.80;84.10;;;;;;4954077;29;20418;-62
2024/01/15 10:10:53;;;;;;;1.75;1.52;;;3.00;83.70;;;;;;4953586;29;20188;-62
2024/01/15 10:13:20;;;;;;;6.10;3.40;;;3.20;83.20;;;;;;4953555;29;20264;-62
2024/01/15 10:15:47;;;;;;;6.90;2.75;;;3.20;82.10;;;;;;4953490;28;20666;-62
2024/01/15 10:18:12;;;;;;;1.85;1.75;;;3.30;82.40;;;;;;4953511;29;20189;-63
2024/01/15 10:20:39;;;;;;;1.70;1.60;;;3.50;82.80;;;;;;4953385;29;20694;-63
2024/01/15 10:23:05;;;;;;;3.35;1.25;;;3.60;81.60;;;;;;4946882;29;20481;-62
2024/01/15 10:25:31;;;;;;;3.20;1.47;;;3.60;81.60;;;;;;4934409;29;20283;-62
2024/01/15 10:28:04;;;;;;;1.77;1.67;;;3.80;81.10;;;;;;4934477;29;20257;-62
2024/01/15 10:30:31;;;;;;;3.47;2.47;;;4.00;80.00;;;;;;4934147;29;20191;-62
2024/01/15 10:33:02;;;;;;;0.85;0.85;;;4.10;78.50;;;;;;4934114;29;20225;-63
2024/01/15 10:35:34;;;;;;;1.67;1.10;;;4.20;79.00;;;;;;4934246;29;20180;-63
2024/01/15 10:38:01;;;;;;;3.53;2.53;;;4.10;78.80;;;;;;4934494;29;20678;-63
2024/01/15 10:40:27;;;;;;;1.67;1.58;;;4.20;78.30;;;;;;4934105;29;20210;-62
2024/01/15 10:42:53;;;;;;;1.40;1.30;;;4.10;77.70;;;;;;4934155;29;20213;-63
2024/01/15 10:45:19;;;;;;;3.07;2.47;;;4.20;77.80;;;;;;4934088;29;20207;-62
2024/01/15 10:47:45;;;;;;;7.47;3.67;;;4.10;77.90;;;;;;4934114;29;20429;-62
2024/01/15 10:50:12;;;;;;;1.45;1.35;;;4.20;77.70;;;;;;4934033;29;20228;-63
2024/01/15 10:52:40;;;;;;;1.23;1.08;;;4.20;76.60;;;;;;4937789;29;20761;-62
2024/01/15 10:55:08;;;;;;;3.63;2.13;;;4.20;75.50;;;;;;4937915;29;20683;-62
2024/01/15 10:57:35;;;;;;;2.88;0.90;;;4.00;75.30;;;;;;4920657;29;20225;-63
2024/01/15 11:00:05;;;;;;;3.85;1.77;;;3.90;76.20;;;;;;4937844;29;20209;-63
2024/01/15 11:02:32;;;;;;;0.77;0.77;;;4.00;75.80;;;;;;4937763;29;20191;-62
2024/01/15 11:04:59;;;;;;;2.88;1.90;;;3.60;76.20;;;;;;4937944;29;20676;-62
2024/01/15 11:07:26;;;;;;;0.70;0.70;;;3.50;78.00;;;;;;4937848;29;20198;-62
2024/01/15 11:09:51;;;;;;;2.58;2.28;;;3.50;77.40;;;;;;4937795;29;20178;-62
2024/01/15 11:12:17;;;;;;;1.10;1.00;;;3.70;78.80;;;;;;4937377;29;20188;-62
2024/01/15 11:14:48;;;;;;;1.77;1.67;;;3.50;77.30;;;;;;4937703;29;20314;-62
2024/01/15 11:17:14;;;;;;;2.28;2.17;;;3.30;77.80;;;;;;4937498;29;20202;-63
2024/01/15 11:19:44;;;;;;;1.08;1.08;;;3.30;79.00;;;;;;4937434;29;20485;-62
2024/01/15 11:22:30;;;;;;;2.05;0.90;;;3.50;79.60;;;;;;4937195;29;20166;-61
2024/01/15 11:25:18;;;;;;;2.15;2.00;;;3.70;78.80;;;;;;4937186;29;20487;-62
2024/01/15 11:27:51;;;;;;;0.98;0.98;;;3.60;77.60;;;;;;4937584;29;20171;-61
2024/01/15 11:30:19;;;;;;;1.95;1.52;;;3.80;77.40;;;;;;4937302;29;20171;-62
2024/01/15 11:32:46;;;;;;;3.85;3.65;;;3.60;77.30;;;;;;4937289;29;20265;-61
2024/01/15 11:35:14;;;;;;;3.08;2.67;;;3.60;78.00;;;;;;4937146;29;20668;-59
2024/01/15 11:37:54;;;;;;;1.52;1.38;;;3.50;77.50;;;;;;4937391;29;20577;-62
2024/01/15 11:40:21;;;;;;;3.47;3.25;;;3.40;78.90;;;;;;4937004;29;20201;-63
2024/01/15 11:42:48;;;;;;;1.88;1.77;;;3.20;79.40;;;;;;4937132;29;20194;-62
2024/01/15 11:45:19;;;;;;;2.72;2.53;;;3.10;80.70;;;;;;4937097;29;20303;-62
2024/01/15 11:48:02;;;;;;;2.55;2.35;;;3.00;81.40;;;;;;4937062;29;20181;-62
2024/01/15 11:50:31;;;;;;;1.83;1.73;;;2.80;82.60;;;;;;4936887;29;20205;-61
2024/01/15 11:53:01;;;;;;;1.70;1.60;;;2.80;83.70;;;;;;4936776;29;20687;-62
2024/01/15 11:55:30;;;;;;;5.10;1.48;;;2.70;83.90;;;;;;4936663;29;20230;-62
2024/01/15 11:58:00;;;;;;;2.08;1.98;;;2.70;84.40;;;;;;4937121;29;20642;-63
2024/01/15 12:00:26;;;;;;;5.05;4.22;;;2.80;84.70;;;;;;4936652;29;20205;-62
2024/01/15 12:02:52;;;;;;;2.25;1.42;;;2.80;84.80;;;;;;4936011;29;20187;-62
2024/01/15 12:05:19;;;;;;;7.40;2.00;;;2.90;85.20;;;;;;4936697;29;20185;-62
2024/01/15 12:07:49;;;;;;;3.03;2.72;;;2.80;84.90;;;;;;4919548;29;20425;-62
2024/01/15 12:10:25;;;;;;;2.90;2.75;;;2.60;85.40;;;;;;4936981;29;20188;-63
2024/01/15 12:12:57;;;;;;;1.00;1.00;;;2.60;85.90;;;;;;4936290;29;20573;-62
2024/01/15 12:15:24;;;;;;;6.97;3.65;;;2.40;87.00;;;;;;4936563;29;20173;-62
2024/01/15 12:17:49;;;;;;;3.92;3.35;;;2.30;87.10;;;;;;4936519;29;20173;-62
2024/01/15 12:20:17;;;;;;;2.97;2.77;;;2.40;87.40;;;;;;4936344;29;20682;-63
2024/01/15 12:22:43;;;;;;;18.13;3.00;;;2.50;87.60;;;;;;4936352;29;20174;-62
2024/01/15 12:25:09;;;;;;;2.95;2.67;;;2.60;88.00;;;;;;4936468;29;20643;-62
2024/01/15 12:27:35;;;;;;;3.13;1.43;;;2.90;87.50;;;;;;4936120;29;20278;-62
2024/01/15 12:30:00;;;;;;;1.03;1.03;;;2.90;86.30;;;;;;4936183;29;20439;-62
2024/01/15 12:32:26;;;;;;;5.60;2.37;;;2.90;86.20;;;;;;4935981;29;20422;-62
2024/01/15 12:34:52;;;;;;;3.30;2.43;;;3.00;86.70;;;;;;4936176;29;20189;-62
2024/01/15 12:37:20;;;;;;;5.70;1.73;;;3.10;86.60;;;;;;4936169;29;20315;-62
2024/01/15 12:39:47;;;;;;;4.30;4.00;;;3.00;85.50;;;;;;4935915;29;20227;-62
2024/01/15 12:42:14;;;;;;;7.68;3.78;;;2.90;85.60;;;;;;4935878;29;20206;-62
2024/01/15 12:44:40;;;;;;;1.50;1.45;;;3.10;85.20;;;;;;4936247;29;20192;-62
2024/01/15 12:47:06;;;;;;;1.10;1.10;;;2.90;84.50;;;;;;4935957;29;20546;-62
2024/01/15 12:49:32;;;;;;;1.13;1.10;;;2.70;84.40;;;;;;4935881;29;20177;-62
2024/01/15 12:51:58;;;;;;;0.88;0.88;;;2.50;85.40;;;;;;4935724;29;20272;-62
2024/01/15 12:54:24;;;;;;;1.37;0.83;;;2.60;85.90;;;;;;4935759;29;20202;-62